createdAt,value
2023-02-03T06:05:33.314Z,91.31
2023-02-03T06:06:34.013Z,90.89
2023-02-03T06:07:35.511Z,91.20
2023-02-03T06:08:33.759Z,90.85
2023-02-03T06:09:34.533Z,90.37
2023-02-03T06:10:34.171Z,90.69
2023-02-03T06:11:34.243Z,91.10
2023-02-03T06:12:33.839Z,91.52
2023-02-03T06:13:34.769Z,91.41
2023-02-03T06:14:33.547Z,91.00
2023-02-03T06:15:33.698Z,90.64
2023-02-03T06:16:33.618Z,90.89
2023-02-03T06:23:28.920Z,89.04
2023-02-03T06:24:29.338Z,89.81
2023-02-03T06:25:29.200Z,90.19
2023-02-03T06:26:30.378Z,89.98
2023-02-03T06:27:29.513Z,89.98
2023-02-03T06:28:29.418Z,90.08
2023-02-03T06:29:29.187Z,90.44
2023-02-03T06:30:29.716Z,90.44
2023-02-03T06:31:29.315Z,90.64
2023-02-03T06:32:29.099Z,90.19
2023-02-03T06:33:29.246Z,90.29
2023-02-03T06:34:29.759Z,90.54
2023-02-03T06:35:29.227Z,90.64
2023-02-03T06:36:28.998Z,91.06
2023-02-03T06:37:29.331Z,91.06
2023-02-03T06:38:29.047Z,90.85
2023-02-03T06:39:29.816Z,90.85
2023-02-03T06:40:29.699Z,90.64
2023-02-03T06:41:29.692Z,90.33
2023-02-03T06:42:29.126Z,90.08
2023-02-03T06:43:29.713Z,90.19
2023-02-03T06:44:29.737Z,89.98
2023-02-03T06:45:28.897Z,90.02
2023-02-03T06:46:29.154Z,90.39
2023-02-03T06:47:28.868Z,89.98
2023-02-03T06:48:29.066Z,90.19
2023-02-03T06:49:28.957Z,90.39
2023-02-03T06:50:29.854Z,90.19
2023-02-03T06:51:28.357Z,90.44
2023-02-03T06:52:29.029Z,90.95
2023-02-03T06:53:29.622Z,90.64
2023-02-03T06:54:29.737Z,91.16
2023-02-03T06:55:29.245Z,90.85
2023-02-03T06:56:28.997Z,90.85
2023-02-03T06:57:29.652Z,90.95
2023-02-03T06:58:29.099Z,90.44
2023-02-03T06:59:28.859Z,90.33
2023-02-03T07:00:29.362Z,90.75
2023-02-03T07:01:29.538Z,90.39
2023-02-03T07:02:28.856Z,89.98
2023-02-03T07:03:29.229Z,90.60
2023-02-03T07:04:29.396Z,90.12
2023-02-03T07:05:29.477Z,89.98
2023-02-03T07:06:28.747Z,89.67
2023-02-03T07:07:29.245Z,89.98
2023-02-03T07:08:28.906Z,89.56
2023-02-03T07:09:29.065Z,89.77
2023-02-03T07:10:29.208Z,89.87
2023-02-03T07:11:28.898Z,89.42
2023-02-03T07:12:28.888Z,88.79
2023-02-03T07:13:29.629Z,88.94
2023-02-03T07:14:28.765Z,89.25
2023-02-03T07:15:28.818Z,89.25
2023-02-03T07:16:28.836Z,89.31
2023-02-03T07:17:28.871Z,88.84
2023-02-03T07:18:46.288Z,89.46
2023-02-03T07:19:28.607Z,89.04
2023-02-03T07:20:29.168Z,89.11
2023-02-03T07:21:28.658Z,88.90
2023-02-03T07:22:28.739Z,89.42
2023-02-03T07:23:28.707Z,88.59
2023-02-03T07:24:28.833Z,88.59
2023-02-03T07:25:28.612Z,88.28
2023-02-03T07:26:28.707Z,88.18
2023-02-03T07:27:28.857Z,88.39
2023-02-03T07:28:28.856Z,88.69
2023-02-03T07:29:28.666Z,88.79
2023-02-03T07:30:29.099Z,88.79
2023-02-03T07:31:28.699Z,89.00
2023-02-03T07:32:28.607Z,89.11
2023-02-03T07:33:28.706Z,88.79
2023-02-03T07:34:28.394Z,88.39
2023-02-03T07:35:28.581Z,88.28
2023-02-03T07:36:28.356Z,88.28
2023-02-03T07:37:29.474Z,87.87
2023-02-03T07:38:28.442Z,88.28
2023-02-03T07:39:28.567Z,88.59
2023-02-03T07:40:28.811Z,87.93
2023-02-03T07:41:28.547Z,88.03
2023-02-03T07:42:29.544Z,88.24
2023-02-03T07:43:28.575Z,88.24
2023-02-03T07:44:28.472Z,88.13
2023-02-03T07:45:28.528Z,87.72
2023-02-03T07:46:50.403Z,87.72
2023-02-03T07:47:28.506Z,87.57
2023-02-03T07:48:28.416Z,87.16
2023-02-03T07:49:28.266Z,87.27
2023-02-03T07:50:29.899Z,87.27
2023-02-03T07:51:28.323Z,87.37
2023-02-03T07:52:49.967Z,87.06
2023-02-03T07:53:28.325Z,87.37
2023-02-03T07:54:28.546Z,87.37
2023-02-03T07:55:28.247Z,87.23
2023-02-03T07:56:28.617Z,86.91
2023-02-03T07:57:28.276Z,86.71
2023-02-03T07:58:28.939Z,86.40
2023-02-03T07:59:28.262Z,86.50
2023-02-03T08:00:28.756Z,86.91
2023-02-03T08:01:28.304Z,86.91
2023-02-03T08:02:27.934Z,86.81
2023-02-03T08:03:27.536Z,87.33
2023-02-03T08:04:28.160Z,87.95
2023-02-03T08:05:28.367Z,87.54
2023-02-03T08:06:28.185Z,87.23
2023-02-03T08:07:27.677Z,86.81
2023-02-03T08:08:28.103Z,87.18
2023-02-03T08:09:29.029Z,86.98
2023-02-03T08:10:28.455Z,86.67
2023-02-03T08:11:28.756Z,86.98
2023-02-03T08:12:28.266Z,86.77
2023-02-03T08:13:28.195Z,87.18
2023-02-03T08:14:28.094Z,86.98
2023-02-03T08:15:28.185Z,86.81
2023-02-03T08:16:29.296Z,87.29
2023-02-03T08:17:27.466Z,86.67
2023-02-03T08:18:28.557Z,87.08
2023-02-03T08:19:28.257Z,87.29
2023-02-03T08:20:28.390Z,87.18
2023-02-03T08:21:28.056Z,86.77
2023-02-03T08:22:28.125Z,87.60
2023-02-03T08:23:28.108Z,87.25
2023-02-03T08:24:28.737Z,87.18
2023-02-03T08:25:27.924Z,87.29
2023-02-03T08:26:28.107Z,87.29
2023-02-03T08:27:27.267Z,87.08
2023-02-03T08:28:28.379Z,87.39
2023-02-03T08:29:27.900Z,87.29
2023-02-03T08:30:31.167Z,88.12
2023-02-03T08:31:29.551Z,87.91
2023-02-03T08:32:28.375Z,87.70
2023-02-03T08:33:28.058Z,87.91
2023-02-03T08:34:28.306Z,88.12
2023-02-03T08:35:28.016Z,89.04
2023-02-03T08:36:27.229Z,88.84
2023-02-03T08:37:27.884Z,88.43
2023-02-03T08:38:28.429Z,88.94
2023-02-03T08:39:27.896Z,88.74
2023-02-03T08:40:28.053Z,88.74
2023-02-03T08:41:28.074Z,88.84
2023-02-03T08:42:27.746Z,89.25
2023-02-03T08:43:29.776Z,88.94
2023-02-03T08:44:27.895Z,89.61
2023-02-03T08:45:28.419Z,89.61
2023-02-03T08:46:27.755Z,89.92
2023-02-03T08:47:27.895Z,89.71
2023-02-03T08:48:27.756Z,89.61
2023-02-03T08:49:28.117Z,89.40
2023-02-03T08:50:28.660Z,89.29
2023-02-03T08:51:28.456Z,89.77
2023-02-03T08:52:27.807Z,89.15
2023-02-03T08:53:27.652Z,89.04
2023-02-03T08:54:27.851Z,88.94
2023-02-03T08:55:27.800Z,88.84
2023-02-03T08:56:27.777Z,89.15
2023-02-03T08:57:27.631Z,89.15
2023-02-03T08:58:27.767Z,88.74
2023-02-03T08:59:28.861Z,88.49
2023-02-03T09:00:28.272Z,88.18
2023-02-03T09:01:27.664Z,88.18
2023-02-03T09:02:27.764Z,88.18
2023-02-03T09:03:28.325Z,87.97
2023-02-03T09:04:27.012Z,87.21
2023-02-03T09:05:27.661Z,87.00
2023-02-03T09:06:27.537Z,87.35
2023-02-03T09:07:27.605Z,87.56
2023-02-03T09:08:27.536Z,87.56
2023-02-03T09:09:27.806Z,87.56
2023-02-03T09:10:28.259Z,87.56
2023-02-03T09:11:27.593Z,86.59
2023-02-03T09:12:27.519Z,87.00
2023-02-03T09:13:27.570Z,86.13
2023-02-03T09:14:28.136Z,86.76
2023-02-03T09:15:27.597Z,86.79
2023-02-03T09:16:27.491Z,86.38
2023-02-03T09:17:27.525Z,86.24
2023-02-03T09:18:28.039Z,86.65
2023-02-03T09:19:28.125Z,85.72
2023-02-03T09:20:28.069Z,85.41
2023-02-03T09:21:35.576Z,85.06
2023-02-03T09:22:27.505Z,84.86
2023-02-03T09:23:27.326Z,84.96
2023-02-03T09:24:27.430Z,85.06
2023-02-03T09:25:27.481Z,84.86
2023-02-03T09:26:27.732Z,85.58
2023-02-03T09:27:27.422Z,84.96
2023-02-03T09:28:28.085Z,85.17
2023-02-03T09:29:26.639Z,85.06
2023-02-03T09:30:28.023Z,85.17
2023-02-03T09:31:28.127Z,85.17
2023-02-03T09:32:27.519Z,84.34
2023-02-03T09:33:27.330Z,84.65
2023-02-03T09:34:27.417Z,84.13
2023-02-03T09:35:27.321Z,83.93
2023-02-03T09:36:27.381Z,83.62
2023-02-03T09:37:27.376Z,83.58
2023-02-03T09:38:27.198Z,84.23
2023-02-03T09:39:27.440Z,84.20
2023-02-03T09:40:27.626Z,84.20
2023-02-03T09:41:27.246Z,83.68
2023-02-03T09:42:28.185Z,83.48
2023-02-03T09:43:27.313Z,82.96
2023-02-03T09:44:27.162Z,82.96
2023-02-03T09:45:27.292Z,82.45
2023-02-03T09:46:26.546Z,82.86
2023-02-03T09:47:27.467Z,82.65
2023-02-03T09:48:27.228Z,82.51
2023-02-03T09:49:27.288Z,82.40
2023-02-03T09:50:27.725Z,82.10
2023-02-03T09:51:27.290Z,82.40
2023-02-03T09:52:27.225Z,82.51
2023-02-03T09:53:27.004Z,81.37
2023-02-03T09:54:27.407Z,81.99
2023-02-03T09:55:27.043Z,81.79
2023-02-03T09:56:27.177Z,81.79
2023-02-03T09:57:27.027Z,81.99
2023-02-03T09:58:27.312Z,81.79
2023-02-03T09:59:27.023Z,82.30
2023-02-03T10:00:27.402Z,82.30
2023-02-03T10:01:27.141Z,82.30
2023-02-03T10:02:27.184Z,82.10
2023-02-03T10:03:26.971Z,82.51
2023-02-03T10:04:26.239Z,82.82
2023-02-03T10:05:27.094Z,82.10
2023-02-03T10:06:27.066Z,82.10
2023-02-03T10:07:28.260Z,81.85
2023-02-03T10:08:26.955Z,81.44
2023-02-03T10:09:27.184Z,81.34
2023-02-03T10:10:27.296Z,81.44
2023-02-03T10:11:27.126Z,82.16
2023-02-03T10:12:26.866Z,82.26
2023-02-03T10:13:27.095Z,82.37
2023-02-03T10:14:26.835Z,81.96
2023-02-03T10:15:27.065Z,81.96
2023-02-03T10:16:26.831Z,81.44
2023-02-03T10:17:27.554Z,81.65
2023-02-03T10:18:26.885Z,81.85
2023-02-03T10:19:26.965Z,81.75
2023-02-03T10:20:27.302Z,81.96
2023-02-03T10:21:27.511Z,82.26
2023-02-03T10:22:26.853Z,81.51
2023-02-03T10:23:27.524Z,81.85
2023-02-03T10:24:26.876Z,81.23
2023-02-03T10:25:26.763Z,81.13
2023-02-03T10:26:26.059Z,82.23
2023-02-03T10:27:26.804Z,81.71
2023-02-03T10:28:26.896Z,81.81
2023-02-03T10:29:27.512Z,80.68
2023-02-03T10:30:27.651Z,80.75
2023-02-03T10:31:26.811Z,80.85
2023-02-03T10:32:28.098Z,81.16
2023-02-03T10:33:26.704Z,81.30
2023-02-03T10:34:25.947Z,81.09
2023-02-03T10:35:26.754Z,81.47
2023-02-03T10:36:26.824Z,80.85
2023-02-03T10:37:29.048Z,81.26
2023-02-03T10:38:26.704Z,80.89
2023-02-03T10:39:26.743Z,80.99
2023-02-03T10:40:26.977Z,81.71
2023-02-03T10:41:26.737Z,80.79
2023-02-03T10:42:26.475Z,81.20
2023-02-03T10:43:26.663Z,81.09
2023-02-03T10:44:26.594Z,80.65
2023-02-03T10:45:26.735Z,80.44
2023-02-03T10:46:26.642Z,80.89
2023-02-03T10:47:26.577Z,80.37
2023-02-03T10:48:26.493Z,80.68
2023-02-03T10:49:26.754Z,80.89
2023-02-03T10:50:27.042Z,80.79
2023-02-03T10:51:26.623Z,80.99
2023-02-03T10:52:26.508Z,80.37
2023-02-03T10:53:26.527Z,81.20
2023-02-03T10:54:25.744Z,81.09
2023-02-03T10:55:26.406Z,80.58
2023-02-03T10:56:26.591Z,81.09
2023-02-03T10:57:26.396Z,80.89
2023-02-03T10:58:26.534Z,80.16
2023-02-03T10:59:25.715Z,80.37
2023-02-03T11:00:26.823Z,80.06
2023-02-03T11:01:26.407Z,80.89
2023-02-03T11:02:26.622Z,80.16
2023-02-03T11:03:26.943Z,80.68
2023-02-03T11:04:26.452Z,79.96
2023-02-03T11:05:26.384Z,80.47
2023-02-03T11:06:26.503Z,80.47
2023-02-03T11:07:27.214Z,80.06
2023-02-03T11:08:25.614Z,79.96
2023-02-03T11:09:26.484Z,79.86
2023-02-03T11:10:27.459Z,79.96
2023-02-03T11:11:27.079Z,80.47
2023-02-03T11:12:26.236Z,80.16
2023-02-03T11:13:26.619Z,80.06
2023-02-03T11:14:26.282Z,79.55
2023-02-03T11:15:27.154Z,79.55
2023-02-03T11:16:26.265Z,79.96
2023-02-03T11:17:27.580Z,80.06
2023-02-03T11:18:27.261Z,80.16
2023-02-03T11:19:26.764Z,80.16
2023-02-03T11:20:26.605Z,80.06
2023-02-03T11:21:27.521Z,80.37
2023-02-03T11:22:26.273Z,79.96
2023-02-03T11:23:27.023Z,79.55
2023-02-03T11:24:27.013Z,79.86
2023-02-03T11:25:26.695Z,80.47
2023-02-03T11:26:26.871Z,80.58
2023-02-03T11:27:27.163Z,79.65
2023-02-03T11:28:26.705Z,79.86
2023-02-03T11:29:25.384Z,80.16
2023-02-03T11:30:27.405Z,79.65
2023-02-03T11:31:27.616Z,79.55
2023-02-03T11:32:27.184Z,80.06
2023-02-03T11:33:27.443Z,79.65
2023-02-03T11:34:26.662Z,80.06
2023-02-03T11:35:25.384Z,80.58
2023-02-03T11:36:26.593Z,79.96
2023-02-03T11:37:26.416Z,80.58
2023-02-03T11:38:26.678Z,79.86
2023-02-03T11:39:25.503Z,79.14
2023-02-03T11:40:26.230Z,79.03
2023-02-03T11:41:25.252Z,79.86
2023-02-03T11:42:25.884Z,79.24
2023-02-03T11:43:25.228Z,80.16
2023-02-03T11:44:25.940Z,78.93
2023-02-03T11:45:26.094Z,80.06
2023-02-03T11:46:26.646Z,79.96
2023-02-03T11:47:25.963Z,79.86
2023-02-03T11:48:25.167Z,80.06
2023-02-03T11:49:26.047Z,80.30
2023-02-03T11:50:26.382Z,80.62
2023-02-03T11:51:25.947Z,81.34
2023-02-03T11:52:26.053Z,80.10
2023-02-03T11:53:25.944Z,80.16
2023-02-03T11:54:26.613Z,80.47
2023-02-03T11:55:25.673Z,80.72
2023-02-03T11:56:25.982Z,80.89
2023-02-03T11:57:26.455Z,80.41
2023-02-03T11:58:25.909Z,80.58
2023-02-03T11:59:25.683Z,80.47
2023-02-03T12:00:26.434Z,80.47
2023-02-03T12:01:26.621Z,80.37
2023-02-03T12:02:25.818Z,80.47
2023-02-03T12:03:25.635Z,79.65
2023-02-03T12:04:25.964Z,79.44
2023-02-03T12:05:25.748Z,80.06
2023-02-03T12:06:26.858Z,79.96
2023-02-03T12:07:24.968Z,79.24
2023-02-03T12:08:26.263Z,79.34
2023-02-03T12:09:24.981Z,79.55
2023-02-03T12:10:24.933Z,79.96
2023-02-03T12:11:25.688Z,79.96
2023-02-03T12:12:26.634Z,79.24
2023-02-03T12:13:25.791Z,79.86
2023-02-03T12:14:25.577Z,80.79
2023-02-03T12:15:25.687Z,80.79
2023-02-03T12:16:27.123Z,80.16
2023-02-03T12:17:24.846Z,80.06
2023-02-03T12:18:26.114Z,79.96
2023-02-03T12:19:25.653Z,80.68
2023-02-03T12:20:25.752Z,79.65
2023-02-03T12:21:25.614Z,79.75
2023-02-03T12:22:24.894Z,79.75
2023-02-03T12:23:25.594Z,80.37
2023-02-03T12:24:26.104Z,80.27
2023-02-03T12:25:24.833Z,80.37
2023-02-03T12:26:25.524Z,80.27
2023-02-03T12:27:25.584Z,80.37
2023-02-03T12:28:33.224Z,80.37
2023-02-03T12:29:24.760Z,80.16
2023-02-03T12:30:25.592Z,80.37
2023-02-03T12:31:25.679Z,80.06
2023-02-03T12:32:26.025Z,79.55
2023-02-03T12:33:26.603Z,80.06
2023-02-03T12:34:25.544Z,80.47
2023-02-03T12:35:25.377Z,79.86
2023-02-03T12:36:25.525Z,80.27
2023-02-03T12:37:25.948Z,79.86
2023-02-03T12:38:25.522Z,79.75
2023-02-03T12:39:25.425Z,78.93
2023-02-03T12:40:25.481Z,79.14
2023-02-03T12:41:25.409Z,79.61
2023-02-03T12:42:25.282Z,79.10
2023-02-03T12:43:25.463Z,79.10
2023-02-03T12:44:25.873Z,79.14
2023-02-03T12:45:25.365Z,79.65
2023-02-03T12:46:26.094Z,79.30
2023-02-03T12:47:25.709Z,78.89
2023-02-03T12:48:25.894Z,79.30
2023-02-03T12:49:26.194Z,79.61
2023-02-03T12:50:25.342Z,79.82
2023-02-03T12:51:25.307Z,79.82
2023-02-03T12:52:25.216Z,79.93
2023-02-03T12:53:27.367Z,79.20
2023-02-03T12:54:26.207Z,78.83
2023-02-03T12:55:26.415Z,78.72
2023-02-03T12:56:25.253Z,78.62
2023-02-03T12:57:25.553Z,79.65
2023-02-03T12:58:25.541Z,79.61
2023-02-03T12:59:25.018Z,78.89
2023-02-03T13:00:25.293Z,79.44
2023-02-03T13:01:26.072Z,79.65
2023-02-03T13:02:25.884Z,79.86
2023-02-03T13:03:25.881Z,79.34
2023-02-03T13:04:25.786Z,80.06
2023-02-03T13:05:25.132Z,79.65
2023-02-03T13:06:25.694Z,79.96
2023-02-03T13:07:25.749Z,80.37
2023-02-03T13:08:24.342Z,80.27
2023-02-03T13:09:24.370Z,80.37
2023-02-03T13:10:25.670Z,80.41
2023-02-03T13:11:25.115Z,80.82
2023-02-03T13:12:24.903Z,80.93
2023-02-03T13:13:25.773Z,80.93
2023-02-03T13:14:24.973Z,80.82
2023-02-03T13:15:25.625Z,80.72
2023-02-03T13:16:24.972Z,80.82
2023-02-03T13:17:25.139Z,79.58
2023-02-03T13:18:25.003Z,81.13
2023-02-03T13:19:25.053Z,80.37
2023-02-03T13:20:25.032Z,80.06
2023-02-03T13:21:25.675Z,80.10
2023-02-03T13:22:24.940Z,81.13
2023-02-03T13:23:25.609Z,81.03
2023-02-03T13:24:24.974Z,80.93
2023-02-03T13:25:25.567Z,81.54
2023-02-03T13:26:24.953Z,80.82
2023-02-03T13:27:25.453Z,80.62
2023-02-03T13:28:25.424Z,80.30
2023-02-03T13:29:25.097Z,80.68
2023-02-03T13:30:25.125Z,80.37
2023-02-03T13:31:25.473Z,80.58
2023-02-03T13:32:25.460Z,80.99
2023-02-03T13:33:25.783Z,81.03
2023-02-03T13:34:24.887Z,81.44
2023-02-03T13:35:33.999Z,81.30
2023-02-03T13:36:25.327Z,80.41
2023-02-03T13:37:25.476Z,80.62
2023-02-03T13:38:25.707Z,80.58
2023-02-03T13:39:25.316Z,81.30
2023-02-03T13:40:24.794Z,80.79
2023-02-03T13:41:25.988Z,81.13
2023-02-03T13:42:24.946Z,81.65
2023-02-03T13:43:37.381Z,82.47
2023-02-03T13:44:25.973Z,82.16
2023-02-03T13:45:25.895Z,83.19
2023-02-03T13:46:24.661Z,82.06
2023-02-03T13:47:23.912Z,82.37
2023-02-03T13:48:23.912Z,82.16
2023-02-03T13:49:23.927Z,82.57
2023-02-03T13:50:25.045Z,82.47
2023-02-03T13:51:23.930Z,82.47
2023-02-03T13:52:24.574Z,81.65
2023-02-03T13:53:24.847Z,82.68
2023-02-03T13:54:23.895Z,83.19
2023-02-03T13:55:25.333Z,82.68
2023-02-03T13:56:24.675Z,83.09
2023-02-03T13:57:25.154Z,83.81
2023-02-03T13:58:26.026Z,83.29
2023-02-03T13:59:25.565Z,83.71
2023-02-03T14:00:23.984Z,82.47
2023-02-03T14:01:25.157Z,82.78
2023-02-03T14:02:25.575Z,83.40
2023-02-03T14:03:24.590Z,84.01
2023-02-03T14:04:25.138Z,84.78
2023-02-03T14:05:26.127Z,84.78
2023-02-03T14:06:25.058Z,84.47
2023-02-03T14:07:26.156Z,85.46
2023-02-03T14:08:25.180Z,85.71
2023-02-03T14:09:25.237Z,84.67
2023-02-03T14:10:24.930Z,85.19
2023-02-03T14:11:24.117Z,84.78
2023-02-03T14:12:25.877Z,84.78
2023-02-03T14:13:26.116Z,85.30
2023-02-03T14:14:24.564Z,85.09
2023-02-03T14:15:24.739Z,84.67
2023-02-03T14:16:24.722Z,83.85
2023-02-03T14:17:25.237Z,84.78
2023-02-03T14:18:25.092Z,84.47
2023-02-03T14:19:24.800Z,84.94
2023-02-03T14:20:26.621Z,85.19
2023-02-03T14:21:23.930Z,85.19
2023-02-03T14:22:23.990Z,85.50
2023-02-03T14:23:25.293Z,85.91
2023-02-03T14:24:25.286Z,87.35
2023-02-03T14:25:23.584Z,84.78
2023-02-03T14:26:23.515Z,85.30
2023-02-03T14:27:25.101Z,85.50
2023-02-03T14:28:25.335Z,86.36
2023-02-03T14:29:25.097Z,85.91
2023-02-03T14:30:23.491Z,86.26
2023-02-03T14:31:25.154Z,86.43
2023-02-03T14:32:23.443Z,86.26
2023-02-03T14:33:24.963Z,86.88
2023-02-03T14:34:24.405Z,87.08
2023-02-03T14:35:25.200Z,86.68
2023-02-03T14:36:24.449Z,86.98
2023-02-03T14:37:23.452Z,87.19
2023-02-03T14:38:24.753Z,86.88
2023-02-03T14:39:25.396Z,86.88
2023-02-03T14:40:24.195Z,86.88
2023-02-03T14:41:23.535Z,86.88
2023-02-03T14:42:24.634Z,87.40
2023-02-03T14:43:23.743Z,88.12
2023-02-03T14:44:23.354Z,86.57
2023-02-03T14:45:24.675Z,85.95
2023-02-03T14:46:24.068Z,85.95
2023-02-03T14:47:25.003Z,86.05
2023-02-03T14:48:24.749Z,86.22
2023-02-03T14:49:24.063Z,85.81
2023-02-03T14:50:24.214Z,85.91
2023-02-03T14:51:24.056Z,86.05
2023-02-03T14:52:23.937Z,85.95
2023-02-03T14:53:24.128Z,86.36
2023-02-03T14:54:23.955Z,86.78
2023-02-03T14:55:23.193Z,86.98
2023-02-03T14:56:24.053Z,86.68
2023-02-03T14:57:23.766Z,86.36
2023-02-03T14:58:24.542Z,86.78
2023-02-03T14:59:23.804Z,87.19
2023-02-03T15:00:23.973Z,86.98
2023-02-03T15:01:23.871Z,87.19
2023-02-03T15:02:23.361Z,87.29
2023-02-03T15:03:23.127Z,87.71
2023-02-03T15:04:24.035Z,88.02
2023-02-03T15:05:23.734Z,87.29
2023-02-03T15:06:24.023Z,87.29
2023-02-03T15:07:23.795Z,88.37
2023-02-03T15:08:24.034Z,87.65
2023-02-03T15:09:23.745Z,88.16
2023-02-03T15:10:23.872Z,87.74
2023-02-03T15:11:23.797Z,88.26
2023-02-03T15:12:23.917Z,88.57
2023-02-03T15:13:23.907Z,87.19
2023-02-03T15:14:23.783Z,87.81
2023-02-03T15:15:23.868Z,86.68
2023-02-03T15:16:24.636Z,85.44
2023-02-03T15:17:23.856Z,86.47
2023-02-03T15:18:23.882Z,86.47
2023-02-03T15:19:24.564Z,85.54
2023-02-03T15:20:23.935Z,85.95
2023-02-03T15:21:23.855Z,85.85
2023-02-03T15:22:23.924Z,85.44
2023-02-03T15:23:22.928Z,85.19
2023-02-03T15:24:23.705Z,84.67
2023-02-03T15:25:23.744Z,84.47
2023-02-03T15:26:23.614Z,83.64
2023-02-03T15:27:23.814Z,83.44
2023-02-03T15:28:23.738Z,84.47
2023-02-03T15:29:23.716Z,83.75
2023-02-03T15:30:23.741Z,83.95
2023-02-03T15:31:24.679Z,83.13
2023-02-03T15:32:23.704Z,82.47
2023-02-03T15:33:23.473Z,82.26
2023-02-03T15:34:23.728Z,81.85
2023-02-03T15:35:22.764Z,82.16
2023-02-03T15:36:23.834Z,82.37
2023-02-03T15:37:23.445Z,82.06
2023-02-03T15:38:23.569Z,81.44
2023-02-03T15:39:24.110Z,81.54
2023-02-03T15:40:23.834Z,81.65
2023-02-03T15:41:23.600Z,82.16
2023-02-03T15:42:23.734Z,81.44
2023-02-03T15:43:23.667Z,81.54
2023-02-03T15:44:23.314Z,81.44
2023-02-03T15:45:23.508Z,81.03
2023-02-03T15:46:24.277Z,80.00
2023-02-03T15:47:23.895Z,80.30
2023-02-03T15:48:23.353Z,80.72
2023-02-03T15:49:24.484Z,80.20
2023-02-03T15:50:24.078Z,80.41
2023-02-03T15:51:23.444Z,81.23
2023-02-03T15:52:24.242Z,80.00
2023-02-03T15:53:26.191Z,79.90
2023-02-03T15:54:23.253Z,79.90
2023-02-03T15:55:23.454Z,80.10
2023-02-03T15:56:23.314Z,80.62
2023-02-03T15:57:24.433Z,80.00
2023-02-03T15:58:23.416Z,79.69
2023-02-03T15:59:23.113Z,80.00
2023-02-03T16:00:23.444Z,79.69
2023-02-03T16:01:23.190Z,79.79
2023-02-03T16:02:23.295Z,80.51
2023-02-03T16:03:23.163Z,79.90
2023-02-03T16:04:22.578Z,79.90
2023-02-03T16:05:23.176Z,79.07
2023-02-03T16:06:25.421Z,79.17
2023-02-03T16:07:23.234Z,79.38
2023-02-03T16:08:23.624Z,79.48
2023-02-03T16:09:23.174Z,79.17
2023-02-03T16:10:24.355Z,79.58
2023-02-03T16:11:23.114Z,79.07
2023-02-03T16:12:23.217Z,78.66
2023-02-03T16:13:23.786Z,78.34
2023-02-03T16:14:23.008Z,78.45
2023-02-03T16:15:23.505Z,78.86
2023-02-03T16:16:23.259Z,77.83
2023-02-03T16:17:24.103Z,77.28
2023-02-03T16:18:22.975Z,77.18
2023-02-03T16:19:23.278Z,76.97
2023-02-03T16:20:22.987Z,76.56
2023-02-03T16:21:23.184Z,76.76
2023-02-03T16:22:24.145Z,76.66
2023-02-03T16:23:23.111Z,76.97
2023-02-03T16:24:22.995Z,77.18
2023-02-03T16:25:23.258Z,75.60
2023-02-03T16:26:23.119Z,75.90
2023-02-03T16:27:22.324Z,76.35
2023-02-03T16:28:24.015Z,76.66
2023-02-03T16:29:22.792Z,77.18
2023-02-03T16:30:23.064Z,77.28
2023-02-03T16:31:22.921Z,77.08
2023-02-03T16:32:23.244Z,77.28
2023-02-03T16:33:22.804Z,77.38
2023-02-03T16:34:22.975Z,77.28
2023-02-03T16:35:22.824Z,76.56
2023-02-03T16:36:22.958Z,76.32
2023-02-03T16:37:22.923Z,76.01
2023-02-03T16:38:23.044Z,76.11
2023-02-03T16:39:22.971Z,75.81
2023-02-03T16:40:22.954Z,75.39
2023-02-03T16:41:23.665Z,75.49
2023-02-03T16:42:22.896Z,75.49
2023-02-03T16:43:22.958Z,75.39
2023-02-03T16:44:22.973Z,75.70
2023-02-03T16:45:23.573Z,75.60
2023-02-03T16:46:22.717Z,75.81
2023-02-03T16:47:22.914Z,75.35
2023-02-03T16:48:22.705Z,75.56
2023-02-03T16:49:22.885Z,75.56
2023-02-03T16:50:36.462Z,74.74
2023-02-03T16:51:23.067Z,75.87
2023-02-03T16:52:22.745Z,75.35
2023-02-03T16:53:22.796Z,74.63
2023-02-03T16:54:22.707Z,74.95
2023-02-03T16:55:23.223Z,75.05
2023-02-03T16:56:22.785Z,74.08
2023-02-03T16:57:22.803Z,74.08
2023-02-03T16:58:23.345Z,74.60
2023-02-03T16:59:22.625Z,74.29
2023-02-03T17:00:22.669Z,73.36
2023-02-03T17:01:22.764Z,74.50
2023-02-03T17:02:22.841Z,73.88
2023-02-03T17:03:23.244Z,73.98
2023-02-03T17:04:22.704Z,74.40
2023-02-03T17:05:23.904Z,75.15
2023-02-03T17:06:22.614Z,73.68
2023-02-03T17:07:23.491Z,73.88
2023-02-03T17:08:22.614Z,74.60
2023-02-03T17:09:22.537Z,74.40
2023-02-03T17:10:22.605Z,75.56
2023-02-03T17:11:23.584Z,74.95
2023-02-03T17:12:22.557Z,74.53
2023-02-03T17:13:22.643Z,75.01
2023-02-03T17:14:22.350Z,75.56
2023-02-03T17:15:22.504Z,75.46
2023-02-03T17:16:22.486Z,75.87
2023-02-03T17:17:22.619Z,75.15
2023-02-03T17:18:22.900Z,75.46
2023-02-03T17:19:22.454Z,75.46
2023-02-03T17:20:22.724Z,75.77
2023-02-03T17:21:21.801Z,75.77
2023-02-03T17:22:22.386Z,76.28
2023-02-03T17:23:22.725Z,77.00
2023-02-03T17:24:22.325Z,76.79
2023-02-03T17:25:22.943Z,76.79
2023-02-03T17:26:22.425Z,77.00
2023-02-03T17:27:22.436Z,76.90
2023-02-03T17:28:22.451Z,77.51
2023-02-03T17:29:22.399Z,77.62
2023-02-03T17:30:22.407Z,77.93
2023-02-03T17:31:22.395Z,78.48
2023-02-03T17:32:22.415Z,78.65
2023-02-03T17:33:22.167Z,78.03
2023-02-03T17:34:22.387Z,78.38
2023-02-03T17:35:22.314Z,78.86
2023-02-03T17:36:22.359Z,78.69
2023-02-03T17:37:22.846Z,78.24
2023-02-03T17:38:22.385Z,78.86
2023-02-03T17:53:21.177Z,84.62
2023-02-03T17:54:19.158Z,83.53
2023-02-03T17:55:17.667Z,85.17
2023-02-03T17:56:18.845Z,85.89
2023-02-03T17:57:19.096Z,86.82
2023-02-03T17:58:18.813Z,87.38
2023-02-03T17:59:18.010Z,87.59
2023-02-03T18:00:18.223Z,87.52
2023-02-03T18:01:18.088Z,88.14
2023-02-03T18:02:18.280Z,88.45
2023-02-03T18:03:18.156Z,89.07
2023-02-03T18:04:18.153Z,89.32
2023-02-03T18:05:18.045Z,90.14
2023-02-03T18:06:18.152Z,91.17
2023-02-03T18:07:18.154Z,91.11
2023-02-03T18:08:20.513Z,91.36
2023-02-03T18:09:17.412Z,92.19
2023-02-03T18:10:18.074Z,92.91
2023-02-03T18:11:17.962Z,92.19
2023-02-03T18:12:17.994Z,92.70
2023-02-03T18:13:18.107Z,91.46
2023-02-03T18:14:17.901Z,91.98
2023-02-03T18:15:19.196Z,91.46
2023-02-03T18:16:18.898Z,91.77
2023-02-03T18:17:17.960Z,90.89
2023-02-03T18:18:18.233Z,91.67
2023-02-03T18:19:18.028Z,90.22
2023-02-03T18:20:17.166Z,89.40
2023-02-03T18:21:18.005Z,89.40
2023-02-03T18:22:17.855Z,89.71
2023-02-03T18:23:17.128Z,88.98
2023-02-03T18:24:18.489Z,88.78
2023-02-03T18:25:18.073Z,88.82
2023-02-03T18:26:17.863Z,89.03
2023-02-03T18:27:17.167Z,90.06
2023-02-03T18:28:17.869Z,89.13
2023-02-03T18:29:17.060Z,89.54
2023-02-03T18:30:18.438Z,89.19
2023-02-03T18:31:17.656Z,88.41
2023-02-03T18:32:17.895Z,89.13
2023-02-03T18:33:17.103Z,89.34
2023-02-03T18:34:17.947Z,88.78
2023-02-03T18:35:16.997Z,88.78
2023-02-03T18:36:17.936Z,88.89
2023-02-03T18:37:17.692Z,89.29
2023-02-03T18:38:17.836Z,88.06
2023-02-03T18:39:17.789Z,88.51
2023-02-03T18:40:17.764Z,88.51
2023-02-03T18:41:17.685Z,89.44
2023-02-03T18:42:17.717Z,88.47
2023-02-03T18:43:17.708Z,88.43
2023-02-03T18:44:17.570Z,87.29
2023-02-03T18:45:17.642Z,85.95
2023-02-03T18:46:17.838Z,87.54
2023-02-03T18:47:17.705Z,87.65
2023-02-03T18:48:17.614Z,86.82
2023-02-03T18:49:17.785Z,88.26
2023-02-03T18:50:17.565Z,87.65
2023-02-03T18:51:17.603Z,87.34
2023-02-03T18:52:17.547Z,87.02
2023-02-03T18:53:17.616Z,87.60
2023-02-03T18:54:17.489Z,86.26
2023-02-03T18:55:18.025Z,86.16
2023-02-03T18:56:16.944Z,86.98
2023-02-03T18:57:17.585Z,86.68
2023-02-03T18:58:17.525Z,87.29
2023-02-03T18:59:17.323Z,87.02
2023-02-03T19:00:17.503Z,87.95
2023-02-03T19:01:17.502Z,87.65
2023-02-03T19:02:17.557Z,87.99
2023-02-03T19:03:18.267Z,89.34
2023-02-03T19:04:17.488Z,89.65
2023-02-03T19:05:17.782Z,89.34
2023-02-03T19:06:17.575Z,88.47
2023-02-03T19:07:17.365Z,88.10
2023-02-03T19:08:17.595Z,87.79
2023-02-03T19:09:17.385Z,88.47
2023-02-03T19:10:17.581Z,87.34
2023-02-03T19:11:17.435Z,87.74
2023-02-03T19:12:17.586Z,87.48
2023-02-03T19:13:17.358Z,88.20
2023-02-03T19:14:17.180Z,89.03
2023-02-03T19:15:17.374Z,88.71
2023-02-03T19:16:17.290Z,89.44
2023-02-03T19:17:17.366Z,88.16